Time;durP1;ratioP1;P1;durP2;ratioP2;P2;SDS_P1;SDS_P2;PMS_P1;PMS_P2;Temp;Humidity;BMP_temperature;BMP_pressure;BME280_temperature;BME280_humidity;BME280_pressure;Samples;Min_cycle;Max_cycle;Signal;HPM_P1;HPM_P2
2023/11/18 00:01:30;;;;;;;;;;;2.80;63.50;;;;;;5073570;28;19924;-71
2023/11/18 00:03:56;;;;;;;;;;;2.70;63.20;;;;;;5059734;28;19939;-70
2023/11/18 00:06:22;;;;;;;;;;;2.70;63.90;;;;;;5053893;28;19917;-71
2023/11/18 00:08:48;;;;;;;;;;;2.60;64.00;;;;;;5036305;28;19931;-71
2023/11/18 00:11:14;;;;;;;;;;;2.60;64.20;;;;;;5035761;28;19925;-70
2023/11/18 00:13:42;;;;;;;;;;;2.60;64.20;;;;;;5060272;28;19924;-70
2023/11/18 00:18:53;;;;;;;;;;;2.50;64.10;;;;;;5058249;28;20014;-71
2023/11/18 00:21:19;;;;;;;;;;;2.50;64.60;;;;;;5037495;28;20018;-71
2023/11/18 00:23:45;;;;;;;;;;;2.50;64.60;;;;;;5035742;28;19925;-70
2023/11/18 00:26:12;;;;;;;;;;;2.50;64.70;;;;;;5039864;28;20013;-71
2023/11/18 00:28:39;;;;;;;;;;;2.50;64.90;;;;;;5035139;28;20417;-71
2023/11/18 00:31:04;;;;;;;;;;;2.50;64.70;;;;;;5018802;28;19927;-71
2023/11/18 00:33:31;;;;;;;;;;;2.50;64.60;;;;;;5058495;28;20342;-68
2023/11/18 00:36:00;;;;;;;;;;;2.50;64.50;;;;;;5055426;28;19923;-68
2023/11/18 00:38:26;;;;;;;;;;;2.40;64.30;;;;;;5055355;28;19924;-68
2023/11/18 00:40:52;;;;;;;;;;;2.40;64.30;;;;;;5038090;28;19960;-68
2023/11/18 00:43:18;;;;;;;;;;;2.50;64.40;;;;;;5073536;28;19930;-67
2023/11/18 00:45:44;;;;;;;;;;;2.40;64.30;;;;;;5073190;28;20460;-71
2023/11/18 00:48:10;;;;;;;;;;;2.40;64.40;;;;;;5073270;28;19929;-69
2023/11/18 00:50:36;;;;;;;;;;;2.40;64.60;;;;;;5054647;28;19970;-67
2023/11/18 00:53:02;;;;;;;;;;;2.40;64.70;;;;;;5059356;28;19928;-71
2023/11/18 00:55:27;;;;;;;;;;;2.30;64.70;;;;;;5075214;28;19926;-71
2023/11/18 00:57:53;;;;;;;;;;;2.30;64.50;;;;;;5093347;28;20345;-68
2023/11/18 01:00:22;;;;;;;;;;;2.30;64.50;;;;;;5092573;28;19946;-66
2023/11/18 01:02:49;;;;;;;;;;;2.30;64.40;;;;;;5074825;28;19978;-67
2023/11/18 01:05:15;;;;;;;;;;;2.20;63.70;;;;;;5075165;28;19924;-68
2023/11/18 01:07:42;;;;;;;;;;;2.20;64.10;;;;;;5093032;28;19928;-67
2023/11/18 01:10:09;;;;;;;;;;;2.30;64.50;;;;;;5092742;28;19916;-68
2023/11/18 01:12:36;;;;;;;;;;;2.20;63.90;;;;;;5075206;28;19931;-67
2023/11/18 01:15:03;;;;;;;;;;;2.10;64.50;;;;;;5075226;28;19920;-67
2023/11/18 01:17:29;;;;;;;;;;;2.10;64.20;;;;;;5074744;28;19977;-67
2023/11/18 01:19:55;;;;;;;;;;;2.00;64.30;;;;;;5093145;28;20323;-68
2023/11/18 01:22:21;;;;;;;;;;;2.00;64.10;;;;;;5074353;28;20285;-69
2023/11/18 01:24:47;;;;;;;;;;;1.90;65.00;;;;;;5093013;28;19920;-69
2023/11/18 01:27:13;;;;;;;;;;;1.90;65.00;;;;;;5092565;28;19926;-67
2023/11/18 01:29:39;;;;;;;;;;;1.90;65.60;;;;;;5074980;28;20042;-67
2023/11/18 01:32:09;;;;;;;;;;;1.90;65.60;;;;;;5092448;28;19970;-67
2023/11/18 01:34:38;;;;;;;;;;;1.90;65.40;;;;;;5075294;28;19970;-67
2023/11/18 01:37:07;;;;;;;;;;;1.90;65.30;;;;;;5078752;28;20291;-69
2023/11/18 01:39:34;;;;;;;;;;;1.90;65.60;;;;;;5079259;28;19928;-67
2023/11/18 01:41:59;;;;;;;;;;;1.80;65.20;;;;;;5078180;28;20007;-67
2023/11/18 01:44:28;;;;;;;;;;;1.80;65.40;;;;;;5096960;28;19920;-67
2023/11/18 01:46:55;;;;;;;;;;;1.70;65.10;;;;;;5079050;28;19920;-67
2023/11/18 01:49:22;;;;;;;;;;;1.70;65.00;;;;;;5078941;28;19920;-69
2023/11/18 01:51:51;;;;;;;;;;;1.70;65.10;;;;;;5077975;28;20506;-66
2023/11/18 01:54:19;;;;;;;;;;;1.70;65.30;;;;;;5078951;28;19931;-67
2023/11/18 01:56:56;;;;;;;;;;;1.70;65.60;;;;;;5096660;28;19916;-68
2023/11/18 01:59:22;;;;;;;;;;;1.70;65.50;;;;;;5078742;28;19924;-71
2023/11/18 02:01:53;;;;;;;;;;;1.70;65.70;;;;;;5077823;28;20350;-68
2023/11/18 02:04:20;;;;;;;;;;;1.70;65.40;;;;;;5062106;28;20365;-67
2023/11/18 02:06:47;;;;;;;;;;;1.70;65.50;;;;;;5078513;28;19916;-67
2023/11/18 02:09:32;;;;;;;;;;;1.70;65.50;;;;;;5061409;28;20029;-67
2023/11/18 02:12:36;;;;;;;;;;;1.60;65.00;;;;;;5095954;28;19931;-70
2023/11/18 02:15:09;;;;;;;;;;;1.50;65.10;;;;;;5078293;28;20404;-67
2023/11/18 02:17:37;;;;;;;;;;;1.50;65.30;;;;;;5062410;28;20014;-67
2023/11/18 02:20:10;;;;;;;;;;;1.50;65.40;;;;;;5077486;28;19916;-68
2023/11/18 02:22:36;;;;;;;;;;;1.50;65.50;;;;;;5062081;28;19920;-68
2023/11/18 02:25:06;;;;;;;;;;;1.50;65.40;;;;;;5078174;28;19923;-67
2023/11/18 02:27:32;;;;;;;;;;;1.50;65.00;;;;;;5095836;28;20319;-67
2023/11/18 02:29:58;;;;;;;;;;;1.60;65.80;;;;;;5096204;28;20006;-67
2023/11/18 02:32:30;;;;;;;;;;;1.50;65.80;;;;;;5060428;28;19932;-68
2023/11/18 02:35:15;;;;;;;;;;;1.50;65.70;;;;;;5061418;28;19916;-67
2023/11/18 02:37:44;;;;;;;;;;;1.40;65.80;;;;;;5095953;28;19928;-69
2023/11/18 02:40:16;;;;;;;;;;;1.40;66.00;;;;;;5077083;28;20288;-71
2023/11/18 02:42:44;;;;;;;;;;;1.40;66.10;;;;;;5077804;28;20023;-71
2023/11/18 02:45:12;;;;;;;;;;;1.40;65.50;;;;;;5077657;28;19920;-68
2023/11/18 02:47:41;;;;;;;;;;;1.20;65.00;;;;;;5095660;28;19928;-67
2023/11/18 02:50:10;;;;;;;;;;;1.30;65.00;;;;;;5077590;28;19923;-69
2023/11/18 02:52:37;;;;;;;;;;;1.20;65.00;;;;;;5077132;28;20455;-67
2023/11/18 02:55:22;;;;;;;;;;;1.20;65.20;;;;;;5095722;28;19922;-68
2023/11/18 03:00:34;;;;;;;;;;;1.10;65.30;;;;;;5079417;28;19927;-70
2023/11/18 03:03:00;;;;;;;;;;;1.00;65.30;;;;;;5077541;28;19928;-67
2023/11/18 03:05:26;;;;;;;;;;;1.10;65.70;;;;;;5095401;28;19973;-66
2023/11/18 03:07:54;;;;;;;;;;;1.10;66.20;;;;;;5077063;28;20356;-71
2023/11/18 03:10:21;;;;;;;;;;;1.10;66.10;;;;;;5076407;28;20395;-71
2023/11/18 03:12:48;;;;;;;;;;;1.10;66.40;;;;;;5060352;28;19924;-69
2023/11/18 03:15:16;;;;;;;;;;;1.10;66.30;;;;;;5060515;28;19920;-69
2023/11/18 03:18:02;;;;;;;;;;;1.10;66.10;;;;;;5077061;28;19924;-70
2023/11/18 03:20:28;;;;;;;;;;;1.10;66.10;;;;;;5076204;28;20023;-71
2023/11/18 03:22:54;;;;;;;;;;;1.10;66.50;;;;;;5076929;28;19928;-71
2023/11/18 03:25:21;;;;;;;;;;;1.10;66.70;;;;;;5095087;28;19929;-70
2023/11/18 03:27:47;;;;;;;;;;;1.10;67.40;;;;;;5076872;28;19924;-68
2023/11/18 03:30:14;;;;;;;;;;;1.10;66.50;;;;;;5076436;28;20296;-67
2023/11/18 03:32:40;;;;;;;;;;;1.00;66.20;;;;;;5076778;28;19935;-66
2023/11/18 03:35:08;;;;;;;;;;;1.00;65.60;;;;;;5076906;28;19959;-68
2023/11/18 03:37:35;;;;;;;;;;;0.90;66.20;;;;;;5076706;28;19928;-68
2023/11/18 03:40:02;;;;;;;;;;;1.00;66.20;;;;;;5076465;28;19939;-67
2023/11/18 03:42:29;;;;;;;;;;;1.00;66.10;;;;;;5076075;28;19967;-67
2023/11/18 03:44:54;;;;;;;;;;;1.00;66.30;;;;;;5094631;28;19916;-67
2023/11/18 03:47:23;;;;;;;;;;;1.00;66.40;;;;;;5094402;28;19939;-67
2023/11/18 03:49:50;;;;;;;;;;;1.00;66.40;;;;;;5094826;28;19924;-68
2023/11/18 03:52:16;;;;;;;;;;;1.00;66.60;;;;;;5075715;28;19920;-67
2023/11/18 03:54:42;;;;;;;;;;;1.00;66.40;;;;;;5058597;28;19973;-67
2023/11/18 03:57:08;;;;;;;;;;;1.00;66.40;;;;;;5039579;28;19985;-67
2023/11/18 03:59:34;;;;;;;;;;;1.00;66.40;;;;;;5055801;28;20019;-67
2023/11/18 04:02:00;;;;;;;;;;;1.00;66.30;;;;;;5073395;28;19920;-68
2023/11/18 04:04:26;;;;;;;;;;;1.00;66.10;;;;;;5056003;28;19924;-67
2023/11/18 04:06:52;;;;;;;;;;;0.90;66.40;;;;;;5074092;28;19923;-68
2023/11/18 04:09:18;;;;;;;;;;;0.90;66.60;;;;;;5074253;28;20323;-67
2023/11/18 04:11:44;;;;;;;;;;;0.90;66.50;;;;;;5055314;28;19920;-68
2023/11/18 04:14:11;;;;;;;;;;;0.90;66.60;;;;;;5074236;28;19931;-68
2023/11/18 04:19:23;;;;;;;;;;;0.90;66.70;;;;;;5058627;28;20365;-67
2023/11/18 04:21:50;;;;;;;;;;;0.80;66.50;;;;;;5073090;28;19935;-67
2023/11/18 04:24:16;;;;;;;;;;;0.80;66.30;;;;;;5056175;28;19925;-69
2023/11/18 04:26:42;;;;;;;;;;;0.80;66.20;;;;;;5055402;28;19926;-69
2023/11/18 04:29:08;;;;;;;;;;;0.70;65.50;;;;;;5073749;28;19946;-70
2023/11/18 04:31:37;;;;;;;;;;;0.70;66.30;;;;;;5054946;28;20011;-71
2023/11/18 04:34:04;;;;;;;;;;;0.70;66.30;;;;;;5056375;28;20296;-69
2023/11/18 04:36:31;;;;;;;;;;;0.60;66.10;;;;;;5055712;28;20339;-70
2023/11/18 04:38:58;;;;;;;;;;;0.70;66.40;;;;;;5055001;28;20007;-69
2023/11/18 04:41:24;;;;;;;;;;;0.60;66.40;;;;;;5054782;28;20344;-69
2023/11/18 04:43:50;;;;;;;;;;;0.60;66.90;;;;;;5055564;28;19925;-71
2023/11/18 04:46:16;;;;;;;;;;;0.60;66.90;;;;;;5055322;28;19967;-71
2023/11/18 04:48:42;;;;;;;;;;;0.50;66.90;;;;;;5038628;28;19947;-68
2023/11/18 04:51:09;;;;;;;;;;;0.50;66.70;;;;;;5054644;28;20049;-67
2023/11/18 04:53:34;;;;;;;;;;;0.50;67.10;;;;;;5063734;28;19935;-70
2023/11/18 04:56:00;;;;;;;;;;;0.50;67.30;;;;;;5075072;28;20014;-69
2023/11/18 04:58:26;;;;;;;;;;;0.60;67.30;;;;;;5074892;28;19959;-69
2023/11/18 05:00:52;;;;;;;;;;;0.50;67.10;;;;;;5074713;28;20007;-69
2023/11/18 05:03:18;;;;;;;;;;;0.50;67.00;;;;;;5093417;28;19924;-70
2023/11/18 05:05:44;;;;;;;;;;;0.50;67.00;;;;;;5058269;28;19922;-69
2023/11/18 05:08:18;;;;;;;;;;;0.50;66.90;;;;;;5093138;28;19928;-69
2023/11/18 05:11:06;;;;;;;;;;;0.50;67.20;;;;;;5073557;28;20335;-69
2023/11/18 05:13:33;;;;;;;;;;;0.50;67.60;;;;;;5093209;28;19924;-70
2023/11/18 05:15:59;;;;;;;;;;;0.50;67.50;;;;;;5058378;28;19960;-69
2023/11/18 05:18:29;;;;;;;;;;;0.40;66.80;;;;;;5093026;28;19931;-70
2023/11/18 05:20:56;;;;;;;;;;;0.40;66.80;;;;;;5074278;28;19924;-70
2023/11/18 05:23:22;;;;;;;;;;;0.30;66.20;;;;;;5093157;28;19924;-70
2023/11/18 05:25:49;;;;;;;;;;;0.30;66.70;;;;;;5093035;28;19916;-70
2023/11/18 05:28:16;;;;;;;;;;;0.30;66.70;;;;;;5074923;28;19924;-70
2023/11/18 05:30:45;;;;;;;;;;;0.30;66.70;;;;;;5092206;28;20280;-69
2023/11/18 05:33:17;;;;;;;;;;;0.30;66.70;;;;;;5058394;28;19924;-69
2023/11/18 05:35:48;;;;;;;;;;;0.40;66.80;;;;;;5075825;28;19916;-69
2023/11/18 05:38:35;;;;;;;;;;;0.30;66.80;;;;;;5058816;28;19924;-69
2023/11/18 05:41:03;;;;;;;;;;;0.30;66.70;;;;;;5092246;28;19927;-69
2023/11/18 05:43:36;;;;;;;;;;;0.20;66.70;;;;;;5093008;28;19928;-69
2023/11/18 05:46:22;;;;;;;;;;;0.20;66.20;;;;;;5075701;28;19923;-70
2023/11/18 05:48:49;;;;;;;;;;;0.20;66.40;;;;;;5092963;28;19971;-71
2023/11/18 05:51:19;;;;;;;;;;;0.10;66.40;;;;;;5074208;28;19920;-70
2023/11/18 05:53:46;;;;;;;;;;;0.10;66.60;;;;;;5064161;28;19925;-69
2023/11/18 05:56:12;;;;;;;;;;;0.10;66.90;;;;;;5043587;28;19921;-69
2023/11/18 05:58:43;;;;;;;;;;;0.10;66.90;;;;;;5054036;28;19928;-70
2023/11/18 06:01:09;;;;;;;;;;;0.20;66.80;;;;;;5054892;28;19970;-70
2023/11/18 06:06:21;;;;;;;;;;;0.10;66.90;;;;;;5057326;28;19925;-69
2023/11/18 06:08:47;;;;;;;;;;;0.20;67.30;;;;;;5054531;28;19968;-70
2023/11/18 06:11:15;;;;;;;;;;;0.10;67.00;;;;;;5053946;28;20270;-70
2023/11/18 06:13:48;;;;;;;;;;;0.10;67.10;;;;;;5054591;28;19928;-69
2023/11/18 06:16:15;;;;;;;;;;;0.10;67.20;;;;;;5054497;28;19921;-70
2023/11/18 06:18:44;;;;;;;;;;;0.10;67.10;;;;;;5072296;28;20367;-70
2023/11/18 06:21:33;;;;;;;;;;;0.10;67.30;;;;;;5054401;28;19935;-69
2023/11/18 06:24:00;;;;;;;;;;;0.10;67.10;;;;;;5076338;28;19920;-69
2023/11/18 06:26:27;;;;;;;;;;;0.20;66.90;;;;;;5075691;28;19932;-69
2023/11/18 06:28:54;;;;;;;;;;;0.20;66.80;;;;;;5057774;28;19928;-68
2023/11/18 06:31:20;;;;;;;;;;;0.20;66.70;;;;;;5075186;28;19928;-70
2023/11/18 06:33:47;;;;;;;;;;;0.20;66.80;;;;;;5057742;28;19932;-71
2023/11/18 06:36:13;;;;;;;;;;;0.20;66.60;;;;;;5040953;28;19947;-69
2023/11/18 06:41:25;;;;;;;;;;;0.20;66.70;;;;;;5058148;28;19931;-71
2023/11/18 06:43:51;;;;;;;;;;;0.20;67.00;;;;;;5059515;28;19924;-69
2023/11/18 06:49:21;;;;;;;;;;;0.30;66.90;;;;;;5055804;28;20026;-70
2023/11/18 06:51:47;;;;;;;;;;;0.40;66.80;;;;;;5054936;28;19921;-71
2023/11/18 06:54:13;;;;;;;;;;;0.30;66.90;;;;;;5069366;28;19925;-69
2023/11/18 06:56:58;;;;;;;;;;;0.30;68.10;;;;;;5057400;28;19966;-69
2023/11/18 06:59:24;;;;;;;;;;;0.30;66.80;;;;;;5057417;28;19947;-69
2023/11/18 07:01:49;;;;;;;;;;;0.40;67.00;;;;;;5074622;28;20385;-69
2023/11/18 07:04:15;;;;;;;;;;;0.40;66.80;;;;;;5057206;28;19930;-68
2023/11/18 07:06:42;;;;;;;;;;;0.40;67.10;;;;;;5075185;28;19920;-71
2023/11/18 07:09:13;;;;;;;;;;;0.50;67.50;;;;;;5075386;28;20369;-70
2023/11/18 07:11:40;;;;;;;;;;;0.50;67.40;;;;;;5074401;28;19927;-69
2023/11/18 07:14:09;;;;;;;;;;;0.50;67.20;;;;;;5075547;28;20007;-69
2023/11/18 07:16:35;;;;;;;;;;;0.60;67.20;;;;;;5074816;28;19920;-70
2023/11/18 07:19:03;;;;;;;;;;;0.60;67.10;;;;;;5056723;28;19924;-70
2023/11/18 07:21:29;;;;;;;;;;;0.70;67.60;;;;;;5056863;28;19920;-70
2023/11/18 07:23:56;;;;;;;;;;;0.70;67.70;;;;;;5057111;28;19967;-69
2023/11/18 07:26:23;;;;;;;;;;;0.70;68.00;;;;;;5074722;28;19920;-69
2023/11/18 07:28:51;;;;;;;;;;;0.80;67.90;;;;;;5074794;28;19982;-69
2023/11/18 07:31:18;;;;;;;;;;;0.80;67.80;;;;;;5056417;28;19952;-70
2023/11/18 07:33:48;;;;;;;;;;;0.90;68.00;;;;;;5055903;28;19966;-69
2023/11/18 07:36:16;;;;;;;;;;;1.00;67.70;;;;;;5057353;28;19921;-70
2023/11/18 07:38:41;;;;;;;;;;;1.10;67.80;;;;;;5056513;28;19924;-68
2023/11/18 07:41:08;;;;;;;;;;;1.10;67.80;;;;;;5073737;28;19925;-70
2023/11/18 07:46:22;;;;;;;;;;;1.40;67.50;;;;;;5074455;28;20046;-70
2023/11/18 07:49:07;;;;;;;;;;;1.50;67.80;;;;;;5074753;28;20039;-69
2023/11/18 07:51:33;;;;;;;;;;;1.50;67.60;;;;;;5073528;28;20339;-69
2023/11/18 07:53:59;;;;;;;;;;;1.70;67.60;;;;;;5074341;28;20007;-69
2023/11/18 07:56:27;;;;;;;;;;;1.80;67.40;;;;;;5056349;28;19969;-69
2023/11/18 07:58:54;;;;;;;;;;;1.90;67.50;;;;;;5039863;28;19928;-69
2023/11/18 08:01:21;;;;;;;;;;;2.00;67.80;;;;;;5073540;28;19938;-69
2023/11/18 08:03:47;;;;;;;;;;;2.10;68.40;;;;;;5056459;28;19931;-69
2023/11/18 08:06:13;;;;;;;;;;;2.10;68.60;;;;;;5073955;28;19942;-69
2023/11/18 08:08:39;;;;;;;;;;;2.20;68.40;;;;;;5039359;28;19924;-70
2023/11/18 08:11:06;;;;;;;;;;;2.30;68.30;;;;;;5055505;28;19921;-70
2023/11/18 08:13:32;;;;;;;;;;;2.40;68.30;;;;;;5055875;28;19978;-70
2023/11/18 08:15:58;;;;;;;;;;;2.50;68.80;;;;;;5056253;28;19924;-69
2023/11/18 08:18:24;;;;;;;;;;;2.60;69.10;;;;;;5055802;28;19964;-70
2023/11/18 08:20:50;;;;;;;;;;;2.70;68.80;;;;;;5055130;28;19924;-70
2023/11/18 08:23:16;;;;;;;;;;;2.80;67.70;;;;;;5055958;28;19928;-70
2023/11/18 08:25:42;;;;;;;;;;;3.00;67.80;;;;;;5073925;28;19936;-67
2023/11/18 08:28:08;;;;;;;;;;;3.10;67.80;;;;;;5055545;28;20319;-70
2023/11/18 08:30:35;;;;;;;;;;;3.20;67.00;;;;;;5055100;28;20289;-68
2023/11/18 08:33:01;;;;;;;;;;;3.40;67.40;;;;;;5055742;28;19974;-70
2023/11/18 08:35:26;;;;;;;;;;;5.00;65.30;;;;;;5055436;28;19974;-69
2023/11/18 08:37:52;;;;;;;;;;;7.50;58.30;;;;;;5073431;28;19928;-69
2023/11/18 08:40:21;;;;;;;;;;;8.80;54.40;;;;;;5054765;28;19920;-69
2023/11/18 08:42:53;;;;;;;;;;;10.60;50.10;;;;;;5073159;28;19925;-70
2023/11/18 08:45:28;;;;;;;;;;;10.80;48.90;;;;;;5056165;28;20328;-70
2023/11/18 08:48:16;;;;;;;;;;;10.20;50.40;;;;;;5056688;28;19931;-69
2023/11/18 08:50:43;;;;;;;;;;;9.80;53.00;;;;;;5072750;28;19963;-69
2023/11/18 08:53:09;;;;;;;;;;;10.00;53.80;;;;;;5073081;28;19924;-71
2023/11/18 08:55:50;;;;;;;;;;;11.10;50.90;;;;;;5073145;28;19920;-71
2023/11/18 08:58:21;;;;;;;;;;;11.20;49.40;;;;;;5073250;28;19978;-70
2023/11/18 09:01:12;;;;;;;;;;;10.80;50.10;;;;;;5055435;28;19927;-70
2023/11/18 09:03:42;;;;;;;;;;;11.30;48.10;;;;;;5073276;28;19924;-69
2023/11/18 09:06:25;;;;;;;;;;;11.00;47.00;;;;;;5055789;28;19916;-68
2023/11/18 09:08:55;;;;;;;;;;;11.00;48.10;;;;;;5057257;28;20395;-68
2023/11/18 09:11:22;;;;;;;;;;;11.90;46.50;;;;;;5038110;28;19928;-67
2023/11/18 09:13:53;;;;;;;;;;;11.90;45.50;;;;;;5055008;28;20139;-67
2023/11/18 09:19:06;;;;;;;;;;;13.30;40.10;;;;;;5057607;28;19932;-67
2023/11/18 09:21:35;;;;;;;;;;;12.50;38.60;;;;;;5054345;28;20381;-67
2023/11/18 09:24:07;;;;;;;;;;;11.60;41.30;;;;;;5055440;28;19925;-67
2023/11/18 09:26:35;;;;;;;;;;;10.90;41.30;;;;;;5072731;28;19916;-69
2023/11/18 09:29:04;;;;;;;;;;;10.70;43.40;;;;;;5054742;28;20399;-68
2023/11/18 09:31:31;;;;;;;;;;;10.50;44.60;;;;;;5054561;28;19932;-69
2023/11/18 09:33:57;;;;;;;;;;;10.40;44.20;;;;;;5060027;28;20018;-67
2023/11/18 09:36:23;;;;;;;;;;;10.30;44.10;;;;;;5087285;28;20398;-68
2023/11/18 09:41:34;;;;;;;;;;;10.10;43.90;;;;;;5063865;28;20276;-68
2023/11/18 09:44:02;;;;;;;;;;;10.00;43.30;;;;;;5062934;28;20408;-67
2023/11/18 09:46:35;;;;;;;;;;;10.70;42.20;;;;;;5081943;28;20274;-68
2023/11/18 09:49:39;;;;;;;;;;;11.10;41.10;;;;;;5081125;28;19930;-68
2023/11/18 09:52:06;;;;;;;;;;;11.20;39.70;;;;;;5075759;28;20014;-67
2023/11/18 09:54:55;;;;;;;;;;;11.10;39.10;;;;;;5072331;28;19924;-67
2023/11/18 09:57:41;;;;;;;;;;;10.70;37.40;;;;;;5076714;28;19955;-67
2023/11/18 10:00:19;;;;;;;;;;;11.80;37.40;;;;;;5077964;28;20406;-68
2023/11/18 10:02:47;;;;;;;;;;;11.20;38.00;;;;;;5080400;28;19916;-67
2023/11/18 10:05:13;;;;;;;;;;;10.70;39.40;;;;;;5067555;28;20006;-67
2023/11/18 10:07:41;;;;;;;;;;;10.70;40.40;;;;;;5060031;28;19920;-68
2023/11/18 10:10:14;;;;;;;;;;;10.60;39.70;;;;;;5075751;28;19920;-67
2023/11/18 10:12:51;;;;;;;;;;;10.30;39.20;;;;;;5076193;28;19985;-68
2023/11/18 10:15:23;;;;;;;;;;;10.30;41.80;;;;;;5076206;28;19952;-68
2023/11/18 10:18:09;;;;;;;;;;;10.20;39.40;;;;;;5076137;28;19981;-69
2023/11/18 10:20:53;;;;;;;;;;;10.40;40.40;;;;;;5066723;28;20057;-68
2023/11/18 10:23:21;;;;;;;;;;;11.20;38.50;;;;;;5078075;28;19977;-68
2023/11/18 10:26:07;;;;;;;;;;;11.30;38.90;;;;;;5093269;28;19931;-69
2023/11/18 10:28:36;;;;;;;;;;;12.00;37.30;;;;;;5067417;28;20452;-67
2023/11/18 10:31:03;;;;;;;;;;;11.70;38.10;;;;;;5065768;28;19931;-67
2023/11/18 10:33:48;;;;;;;;;;;11.50;36.90;;;;;;5070505;28;19924;-68
2023/11/18 10:36:36;;;;;;;;;;;11.80;36.60;;;;;;5063813;28;20324;-69
2023/11/18 10:39:12;;;;;;;;;;;11.40;37.60;;;;;;5058500;28;19935;-67
2023/11/18 10:42:00;;;;;;;;;;;11.30;38.90;;;;;;5058597;28;19920;-69
2023/11/18 10:44:26;;;;;;;;;;;11.50;38.50;;;;;;5057765;28;20312;-69
2023/11/18 10:46:53;;;;;;;;;;;11.30;38.10;;;;;;5057659;28;19923;-68
2023/11/18 10:49:22;;;;;;;;;;;11.60;38.00;;;;;;5057650;28;19974;-67
2023/11/18 10:51:51;;;;;;;;;;;13.50;36.10;;;;;;5057017;28;20015;-67
2023/11/18 10:54:19;;;;;;;;;;;15.20;31.40;;;;;;5057551;28;19974;-69
2023/11/18 10:57:07;;;;;;;;;;;15.30;31.50;;;;;;5107057;28;19920;-68
2023/11/18 10:59:33;;;;;;;;;;;14.50;31.80;;;;;;5098250;28;19924;-69
2023/11/18 11:01:59;;;;;;;;;;;14.10;31.10;;;;;;5096947;28;19978;-67
2023/11/18 11:04:25;;;;;;;;;;;14.10;31.70;;;;;;5097950;28;19924;-68
2023/11/18 11:06:56;;;;;;;;;;;13.60;32.40;;;;;;5097680;28;20269;-68
2023/11/18 11:09:35;;;;;;;;;;;13.40;32.50;;;;;;5114197;28;20345;-69
2023/11/18 11:12:16;;;;;;;;;;;14.10;33.70;;;;;;5098418;28;19927;-67
2023/11/18 11:15:04;;;;;;;;;;;16.20;30.70;;;;;;5116063;28;19923;-69
2023/11/18 11:17:30;;;;;;;;;;;17.30;27.20;;;;;;5097618;28;20011;-68
2023/11/18 11:20:23;;;;;;;;;;;18.10;27.50;;;;;;5080608;28;20052;-69
2023/11/18 11:23:10;;;;;;;;;;;17.90;27.50;;;;;;5098050;28;20019;-68
2023/11/18 11:26:13;;;;;;;;;;;16.50;29.50;;;;;;5115655;28;20010;-69
2023/11/18 11:29:34;;;;;;;;;;;15.90;29.90;;;;;;5115754;28;19970;-67
2023/11/18 11:32:24;;;;;;;;;;;16.50;29.70;;;;;;5096668;28;20334;-68
2023/11/18 11:37:47;;;;;;;;;;;16.10;27.70;;;;;;5099818;28;19943;-69
2023/11/18 11:40:21;;;;;;;;;;;16.40;28.40;;;;;;5114607;28;19916;-69
2023/11/18 11:42:49;;;;;;;;;;;17.00;26.90;;;;;;5098367;28;20011;-68
2023/11/18 11:45:19;;;;;;;;;;;16.50;26.60;;;;;;5097311;28;19923;-68
2023/11/18 11:47:49;;;;;;;;;;;16.90;27.60;;;;;;5115232;28;19931;-68
2023/11/18 11:50:29;;;;;;;;;;;17.90;26.90;;;;;;5096625;28;19922;-68
2023/11/18 11:53:07;;;;;;;;;;;18.10;25.80;;;;;;5098010;28;19924;-68
2023/11/18 11:55:59;;;;;;;;;;;18.20;25.90;;;;;;5080691;28;19920;-68
2023/11/18 11:58:27;;;;;;;;;;;17.60;26.10;;;;;;5115265;28;19924;-68
2023/11/18 12:00:54;;;;;;;;;;;16.50;27.60;;;;;;5096134;28;20399;-67
2023/11/18 12:03:22;;;;;;;;;;;16.90;27.80;;;;;;5096634;28;19928;-68
2023/11/18 12:05:51;;;;;;;;;;;17.60;27.20;;;;;;5096853;28;19919;-68
2023/11/18 12:08:18;;;;;;;;;;;17.20;26.80;;;;;;5115027;28;19923;-69
2023/11/18 12:11:03;;;;;;;;;;;16.60;27.70;;;;;;5095920;28;19920;-68
2023/11/18 12:13:34;;;;;;;;;;;16.20;28.00;;;;;;5096546;28;19930;-67
2023/11/18 12:19:22;;;;;;;;;;;15.70;28.80;;;;;;5088791;28;19939;-68
2023/11/18 12:22:12;;;;;;;;;;;15.40;28.10;;;;;;5069505;28;20456;-67
2023/11/18 12:27:46;;;;;;;;;;;15.30;28.60;;;;;;5078471;28;19939;-69
2023/11/18 12:30:15;;;;;;;;;;;15.50;27.00;;;;;;5075821;28;20011;-69
2023/11/18 12:32:56;;;;;;;;;;;15.70;27.50;;;;;;5094014;28;20003;-68
2023/11/18 12:35:27;;;;;;;;;;;15.90;27.60;;;;;;5075733;28;19923;-67
2023/11/18 12:38:12;;;;;;;;;;;15.90;28.10;;;;;;5075972;28;19977;-68
2023/11/18 12:40:59;;;;;;;;;;;15.60;26.70;;;;;;5092815;28;19924;-68
2023/11/18 12:43:48;;;;;;;;;;;15.70;28.20;;;;;;5094111;28;20005;-67
2023/11/18 12:46:20;;;;;;;;;;;15.60;27.00;;;;;;5093825;28;19956;-69
2023/11/18 12:48:49;;;;;;;;;;;15.40;27.70;;;;;;5093888;28;19924;-68
2023/11/18 12:51:19;;;;;;;;;;;15.50;28.20;;;;;;5075017;28;19920;-68
2023/11/18 12:54:06;;;;;;;;;;;15.70;28.80;;;;;;5075902;28;19928;-68
2023/11/18 12:56:32;;;;;;;;;;;15.80;28.50;;;;;;5093488;28;19923;-68
2023/11/18 12:59:00;;;;;;;;;;;16.00;28.10;;;;;;5093128;28;21480;-68
2023/11/18 13:01:27;;;;;;;;;;;16.20;27.70;;;;;;5074938;28;19963;-67
2023/11/18 13:03:53;;;;;;;;;;;16.50;27.90;;;;;;5075704;28;19932;-68
2023/11/18 13:06:19;;;;;;;;;;;16.80;27.60;;;;;;5075497;28;19923;-68
2023/11/18 13:08:45;;;;;;;;;;;16.80;26.50;;;;;;5075184;28;20500;-69
2023/11/18 13:13:58;;;;;;;;;;;17.80;25.60;;;;;;5093721;28;19994;-69
2023/11/18 13:16:25;;;;;;;;;;;17.80;25.10;;;;;;5093279;28;19916;-69
2023/11/18 13:18:53;;;;;;;;;;;17.60;25.90;;;;;;5093544;28;19971;-68
2023/11/18 13:21:25;;;;;;;;;;;17.40;26.40;;;;;;5092433;28;19952;-69
2023/11/18 13:23:52;;;;;;;;;;;17.60;26.50;;;;;;5074925;28;20392;-68
2023/11/18 13:26:19;;;;;;;;;;;18.10;25.30;;;;;;5075045;28;19920;-69
2023/11/18 13:29:04;;;;;;;;;;;19.10;24.70;;;;;;5074918;28;19921;-67
2023/11/18 13:31:30;;;;;;;;;;;21.10;22.80;;;;;;5073876;28;19928;-68
2023/11/18 13:33:57;;;;;;;;;;;21.20;21.70;;;;;;5075101;28;19926;-68
2023/11/18 13:36:24;;;;;;;;;;;20.60;21.70;;;;;;5075343;28;20355;-67
2023/11/18 13:38:50;;;;;;;;;;;20.20;21.70;;;;;;5075092;28;19924;-69
2023/11/18 13:41:36;;;;;;;;;;;20.50;21.80;;;;;;5074292;28;19931;-67
2023/11/18 13:44:03;;;;;;;;;;;20.00;21.70;;;;;;5075338;28;19920;-69
2023/11/18 13:46:28;;;;;;;;;;;19.50;22.50;;;;;;5074964;28;19924;-68
2023/11/18 13:48:54;;;;;;;;;;;19.00;23.70;;;;;;5093148;28;20007;-69
2023/11/18 13:51:21;;;;;;;;;;;18.30;24.00;;;;;;5057356;28;20367;-68
2023/11/18 13:53:47;;;;;;;;;;;17.80;24.50;;;;;;5057981;28;20161;-68
2023/11/18 13:56:15;;;;;;;;;;;17.50;25.80;;;;;;5092926;28;19924;-68
2023/11/18 13:58:42;;;;;;;;;;;17.10;26.60;;;;;;5075044;28;20369;-69
2023/11/18 14:03:55;;;;;;;;;;;16.60;26.10;;;;;;5077693;28;20022;-68
2023/11/18 14:06:22;;;;;;;;;;;16.40;27.00;;;;;;5074913;28;19980;-68
2023/11/18 14:08:50;;;;;;;;;;;16.10;26.90;;;;;;5057951;28;19927;-69
2023/11/18 14:11:16;;;;;;;;;;;15.80;26.60;;;;;;5057486;28;19925;-67
2023/11/18 14:13:42;;;;;;;;;;;15.70;27.10;;;;;;5092951;28;19931;-69
2023/11/18 14:16:09;;;;;;;;;;;15.40;28.10;;;;;;5092870;28;19967;-67
2023/11/18 14:18:36;;;;;;;;;;;15.20;28.30;;;;;;5074872;28;19924;-68
2023/11/18 14:21:02;;;;;;;;;;;15.00;29.30;;;;;;5092155;28;20345;-68
2023/11/18 14:23:28;;;;;;;;;;;14.70;29.30;;;;;;5074624;28;19920;-68
2023/11/18 14:25:54;;;;;;;;;;;14.50;30.30;;;;;;5074474;28;20015;-67
2023/11/18 14:28:25;;;;;;;;;;;14.30;30.90;;;;;;5057558;28;19932;-68
2023/11/18 14:30:51;;;;;;;;;;;14.10;32.00;;;;;;5092213;28;19924;-69
2023/11/18 14:33:17;;;;;;;;;;;14.00;32.00;;;;;;5074781;28;19985;-68
2023/11/18 14:36:05;;;;;;;;;;;13.90;32.90;;;;;;5057533;28;19949;-68
2023/11/18 14:38:31;;;;;;;;;;;13.70;32.70;;;;;;5074653;28;19924;-67
2023/11/18 14:40:57;;;;;;;;;;;13.50;33.00;;;;;;5073654;28;19967;-69
2023/11/18 14:43:22;;;;;;;;;;;13.20;32.70;;;;;;5094744;28;20168;-67
2023/11/18 14:45:48;;;;;;;;;;;13.10;33.90;;;;;;5096082;28;19920;-69
2023/11/18 14:48:14;;;;;;;;;;;12.80;34.60;;;;;;5078059;28;20380;-69
2023/11/18 14:50:40;;;;;;;;;;;12.60;35.00;;;;;;5095366;28;19994;-69
2023/11/18 14:53:06;;;;;;;;;;;12.40;35.80;;;;;;5077724;28;19928;-70
2023/11/18 14:55:36;;;;;;;;;;;12.10;36.00;;;;;;5077698;28;19994;-68
2023/11/18 14:58:04;;;;;;;;;;;12.00;36.40;;;;;;5078183;28;20448;-68
2023/11/18 15:00:32;;;;;;;;;;;11.80;37.00;;;;;;5077262;28;19920;-68
2023/11/18 15:02:58;;;;;;;;;;;11.60;37.40;;;;;;5095989;28;20035;-69
2023/11/18 15:05:24;;;;;;;;;;;11.50;37.80;;;;;;5060798;28;20335;-67
2023/11/18 15:07:52;;;;;;;;;;;11.20;37.90;;;;;;5077262;28;19928;-67
2023/11/18 15:10:21;;;;;;;;;;;11.00;39.80;;;;;;5076977;28;19923;-67
2023/11/18 15:13:05;;;;;;;;;;;10.80;40.20;;;;;;5077685;28;19967;-68
2023/11/18 15:15:32;;;;;;;;;;;10.70;41.10;;;;;;5085214;28;19921;-68
2023/11/18 15:17:59;;;;;;;;;;;10.60;40.60;;;;;;5040429;28;19931;-68
2023/11/18 15:20:25;;;;;;;;;;;10.50;41.40;;;;;;5056544;28;20400;-69